sensor_id;sensor_type;location;lat;lon;timestamp;P1;durP1;ratioP1;P2;durP2;ratioP2
22881;SDS011;11608;50.894;5.296;2023-04-03T00:00:58;29.03;;;26.53;;
22881;SDS011;11608;50.894;5.296;2023-04-03T00:03:24;28.47;;;26.37;;
22881;SDS011;11608;50.894;5.296;2023-04-03T00:05:50;28.10;;;25.70;;
22881;SDS011;11608;50.894;5.296;2023-04-03T00:08:19;25.90;;;24.00;;
22881;SDS011;11608;50.894;5.296;2023-04-03T00:10:48;26.97;;;24.77;;
22881;SDS011;11608;50.894;5.296;2023-04-03T00:13:14;28.17;;;25.90;;
22881;SDS011;11608;50.894;5.296;2023-04-03T00:15:40;27.63;;;25.07;;
22881;SDS011;11608;50.894;5.296;2023-04-03T00:18:06;28.27;;;25.80;;
22881;SDS011;11608;50.894;5.296;2023-04-03T00:20:33;27.67;;;25.47;;
22881;SDS011;11608;50.894;5.296;2023-04-03T00:23:01;26.87;;;24.77;;
22881;SDS011;11608;50.894;5.296;2023-04-03T00:25:28;27.90;;;25.50;;
22881;SDS011;11608;50.894;5.296;2023-04-03T00:27:56;26.70;;;24.50;;
22881;SDS011;11608;50.894;5.296;2023-04-03T00:30:22;27.03;;;24.90;;
22881;SDS011;11608;50.894;5.296;2023-04-03T00:32:49;26.70;;;24.67;;
22881;SDS011;11608;50.894;5.296;2023-04-03T00:35:15;26.73;;;24.53;;
22881;SDS011;11608;50.894;5.296;2023-04-03T00:37:41;27.43;;;25.13;;
22881;SDS011;11608;50.894;5.296;2023-04-03T00:40:08;27.10;;;25.03;;
22881;SDS011;11608;50.894;5.296;2023-04-03T00:42:37;27.37;;;25.03;;
22881;SDS011;11608;50.894;5.296;2023-04-03T00:47:29;27.47;;;25.07;;
22881;SDS011;11608;50.894;5.296;2023-04-03T00:49:56;27.27;;;25.03;;
22881;SDS011;11608;50.894;5.296;2023-04-03T00:52:23;28.23;;;25.87;;
22881;SDS011;11608;50.894;5.296;2023-04-03T00:54:51;27.83;;;25.43;;
22881;SDS011;11608;50.894;5.296;2023-04-03T00:57:18;27.93;;;25.57;;
22881;SDS011;11608;50.894;5.296;2023-04-03T00:59:55;27.07;;;24.77;;
22881;SDS011;11608;50.894;5.296;2023-04-03T01:02:22;27.67;;;25.57;;
22881;SDS011;11608;50.894;5.296;2023-04-03T01:04:48;28.67;;;26.37;;
22881;SDS011;11608;50.894;5.296;2023-04-03T01:07:15;28.60;;;26.30;;
22881;SDS011;11608;50.894;5.296;2023-04-03T01:09:42;28.57;;;26.37;;
22881;SDS011;11608;50.894;5.296;2023-04-03T01:12:15;28.90;;;26.50;;
22881;SDS011;11608;50.894;5.296;2023-04-03T01:14:42;29.37;;;27.13;;
22881;SDS011;11608;50.894;5.296;2023-04-03T01:17:26;27.73;;;25.70;;
22881;SDS011;11608;50.894;5.296;2023-04-03T01:22:44;28.77;;;26.20;;
22881;SDS011;11608;50.894;5.296;2023-04-03T01:25:15;28.07;;;25.77;;
22881;SDS011;11608;50.894;5.296;2023-04-03T01:27:41;29.37;;;26.90;;
22881;SDS011;11608;50.894;5.296;2023-04-03T01:30:07;28.97;;;26.57;;
22881;SDS011;11608;50.894;5.296;2023-04-03T01:32:33;28.80;;;26.60;;
22881;SDS011;11608;50.894;5.296;2023-04-03T01:34:59;29.93;;;27.13;;
22881;SDS011;11608;50.894;5.296;2023-04-03T01:37:26;30.40;;;27.80;;
22881;SDS011;11608;50.894;5.296;2023-04-03T01:39:54;29.80;;;27.23;;
22881;SDS011;11608;50.894;5.296;2023-04-03T01:42:22;28.47;;;26.17;;
22881;SDS011;11608;50.894;5.296;2023-04-03T01:44:48;29.50;;;27.10;;
22881;SDS011;11608;50.894;5.296;2023-04-03T01:47:17;28.50;;;26.13;;
22881;SDS011;11608;50.894;5.296;2023-04-03T01:49:43;28.70;;;26.30;;
22881;SDS011;11608;50.894;5.296;2023-04-03T01:52:09;30.10;;;27.53;;
22881;SDS011;11608;50.894;5.296;2023-04-03T01:54:35;29.77;;;27.37;;
22881;SDS011;11608;50.894;5.296;2023-04-03T01:57:01;29.50;;;27.17;;
22881;SDS011;11608;50.894;5.296;2023-04-03T01:59:30;30.00;;;27.60;;
22881;SDS011;11608;50.894;5.296;2023-04-03T02:01:56;29.33;;;26.83;;
22881;SDS011;11608;50.894;5.296;2023-04-03T02:04:22;30.37;;;27.97;;
22881;SDS011;11608;50.894;5.296;2023-04-03T02:06:51;28.60;;;26.40;;
22881;SDS011;11608;50.894;5.296;2023-04-03T02:09:19;30.67;;;28.20;;
22881;SDS011;11608;50.894;5.296;2023-04-03T02:11:45;30.27;;;27.93;;
22881;SDS011;11608;50.894;5.296;2023-04-03T02:14:11;28.97;;;26.87;;
22881;SDS011;11608;50.894;5.296;2023-04-03T02:16:40;29.90;;;27.60;;
22881;SDS011;11608;50.894;5.296;2023-04-03T02:19:06;30.80;;;28.20;;
22881;SDS011;11608;50.894;5.296;2023-04-03T02:21:32;30.80;;;28.00;;
22881;SDS011;11608;50.894;5.296;2023-04-03T02:23:58;30.73;;;28.33;;
22881;SDS011;11608;50.894;5.296;2023-04-03T02:26:24;30.20;;;27.70;;
22881;SDS011;11608;50.894;5.296;2023-04-03T02:28:51;31.93;;;29.23;;
22881;SDS011;11608;50.894;5.296;2023-04-03T02:31:17;31.07;;;28.50;;
22881;SDS011;11608;50.894;5.296;2023-04-03T02:33:43;31.07;;;28.70;;
22881;SDS011;11608;50.894;5.296;2023-04-03T02:36:10;32.50;;;29.90;;
22881;SDS011;11608;50.894;5.296;2023-04-03T02:38:36;30.97;;;28.57;;
22881;SDS011;11608;50.894;5.296;2023-04-03T02:41:03;31.13;;;28.33;;
22881;SDS011;11608;50.894;5.296;2023-04-03T02:43:31;30.90;;;28.50;;
22881;SDS011;11608;50.894;5.296;2023-04-03T02:45:57;31.83;;;29.23;;
22881;SDS011;11608;50.894;5.296;2023-04-03T02:48:24;31.87;;;29.17;;
22881;SDS011;11608;50.894;5.296;2023-04-03T02:50:50;30.60;;;28.03;;
22881;SDS011;11608;50.894;5.296;2023-04-03T02:53:17;30.77;;;28.47;;
22881;SDS011;11608;50.894;5.296;2023-04-03T02:55:43;31.77;;;28.90;;
22881;SDS011;11608;50.894;5.296;2023-04-03T02:58:09;30.87;;;28.37;;
22881;SDS011;11608;50.894;5.296;2023-04-03T03:00:35;31.83;;;29.03;;
22881;SDS011;11608;50.894;5.296;2023-04-03T03:03:01;31.83;;;29.17;;
22881;SDS011;11608;50.894;5.296;2023-04-03T03:05:27;31.77;;;29.03;;
22881;SDS011;11608;50.894;5.296;2023-04-03T03:07:53;31.33;;;29.00;;
22881;SDS011;11608;50.894;5.296;2023-04-03T03:10:23;30.77;;;28.43;;
22881;SDS011;11608;50.894;5.296;2023-04-03T03:12:49;33.17;;;30.67;;
22881;SDS011;11608;50.894;5.296;2023-04-03T03:15:18;33.57;;;30.83;;
22881;SDS011;11608;50.894;5.296;2023-04-03T03:17:45;32.27;;;29.67;;
22881;SDS011;11608;50.894;5.296;2023-04-03T03:20:11;32.23;;;29.83;;
22881;SDS011;11608;50.894;5.296;2023-04-03T03:22:39;32.70;;;30.20;;
22881;SDS011;11608;50.894;5.296;2023-04-03T03:25:07;33.77;;;31.20;;
22881;SDS011;11608;50.894;5.296;2023-04-03T03:27:34;34.33;;;31.57;;
22881;SDS011;11608;50.894;5.296;2023-04-03T03:30:03;34.20;;;31.57;;
22881;SDS011;11608;50.894;5.296;2023-04-03T03:32:29;34.63;;;32.13;;
22881;SDS011;11608;50.894;5.296;2023-04-03T03:34:55;35.10;;;32.30;;
22881;SDS011;11608;50.894;5.296;2023-04-03T03:37:24;34.97;;;32.30;;
22881;SDS011;11608;50.894;5.296;2023-04-03T03:39:50;34.53;;;31.93;;
22881;SDS011;11608;50.894;5.296;2023-04-03T03:42:16;34.53;;;31.73;;
22881;SDS011;11608;50.894;5.296;2023-04-03T03:44:42;33.53;;;31.00;;
22881;SDS011;11608;50.894;5.296;2023-04-03T03:47:08;34.97;;;32.30;;
22881;SDS011;11608;50.894;5.296;2023-04-03T03:49:35;34.00;;;31.20;;
22881;SDS011;11608;50.894;5.296;2023-04-03T03:52:01;34.53;;;31.83;;
22881;SDS011;11608;50.894;5.296;2023-04-03T03:54:27;32.63;;;29.93;;
22881;SDS011;11608;50.894;5.296;2023-04-03T03:56:54;35.90;;;33.03;;
22881;SDS011;11608;50.894;5.296;2023-04-03T03:59:20;34.87;;;32.03;;
22881;SDS011;11608;50.894;5.296;2023-04-03T04:01:46;35.00;;;32.13;;
22881;SDS011;11608;50.894;5.296;2023-04-03T04:04:12;34.97;;;32.17;;
22881;SDS011;11608;50.894;5.296;2023-04-03T04:06:38;37.30;;;34.30;;
22881;SDS011;11608;50.894;5.296;2023-04-03T04:09:04;37.07;;;34.07;;
22881;SDS011;11608;50.894;5.296;2023-04-03T04:11:32;34.80;;;32.13;;
22881;SDS011;11608;50.894;5.296;2023-04-03T04:13:58;33.77;;;31.27;;
22881;SDS011;11608;50.894;5.296;2023-04-03T04:16:24;34.83;;;32.23;;
22881;SDS011;11608;50.894;5.296;2023-04-03T04:18:50;37.17;;;34.23;;
22881;SDS011;11608;50.894;5.296;2023-04-03T04:21:16;34.87;;;32.33;;
22881;SDS011;11608;50.894;5.296;2023-04-03T04:23:42;35.77;;;33.03;;
22881;SDS011;11608;50.894;5.296;2023-04-03T04:26:08;34.73;;;32.03;;
22881;SDS011;11608;50.894;5.296;2023-04-03T04:28:34;36.13;;;33.43;;
22881;SDS011;11608;50.894;5.296;2023-04-03T04:31:00;36.23;;;33.57;;
22881;SDS011;11608;50.894;5.296;2023-04-03T04:33:26;33.97;;;31.23;;
22881;SDS011;11608;50.894;5.296;2023-04-03T04:35:54;37.57;;;34.30;;
22881;SDS011;11608;50.894;5.296;2023-04-03T04:38:23;36.93;;;33.90;;
22881;SDS011;11608;50.894;5.296;2023-04-03T04:40:51;36.47;;;33.60;;
22881;SDS011;11608;50.894;5.296;2023-04-03T04:43:17;37.50;;;34.60;;
22881;SDS011;11608;50.894;5.296;2023-04-03T04:45:43;37.33;;;34.50;;
22881;SDS011;11608;50.894;5.296;2023-04-03T04:48:10;35.73;;;32.70;;
22881;SDS011;11608;50.894;5.296;2023-04-03T04:50:36;33.43;;;30.70;;
22881;SDS011;11608;50.894;5.296;2023-04-03T04:53:04;34.33;;;31.60;;
22881;SDS011;11608;50.894;5.296;2023-04-03T04:55:30;34.57;;;31.80;;
22881;SDS011;11608;50.894;5.296;2023-04-03T04:57:56;34.23;;;31.43;;
22881;SDS011;11608;50.894;5.296;2023-04-03T05:00:22;37.10;;;34.20;;
22881;SDS011;11608;50.894;5.296;2023-04-03T05:02:48;34.40;;;31.60;;
22881;SDS011;11608;50.894;5.296;2023-04-03T05:05:15;36.07;;;32.90;;
22881;SDS011;11608;50.894;5.296;2023-04-03T05:07:41;34.93;;;32.13;;
22881;SDS011;11608;50.894;5.296;2023-04-03T05:10:07;35.70;;;32.67;;
22881;SDS011;11608;50.894;5.296;2023-04-03T05:12:34;36.57;;;33.67;;
22881;SDS011;11608;50.894;5.296;2023-04-03T05:15:00;36.87;;;33.97;;
22881;SDS011;11608;50.894;5.296;2023-04-03T05:17:26;33.83;;;31.13;;
22881;SDS011;11608;50.894;5.296;2023-04-03T05:19:52;34.50;;;31.43;;
22881;SDS011;11608;50.894;5.296;2023-04-03T05:22:18;34.40;;;31.40;;
22881;SDS011;11608;50.894;5.296;2023-04-03T05:24:44;33.80;;;30.93;;
22881;SDS011;11608;50.894;5.296;2023-04-03T05:27:10;33.00;;;30.20;;
22881;SDS011;11608;50.894;5.296;2023-04-03T05:29:36;32.20;;;29.50;;
22881;SDS011;11608;50.894;5.296;2023-04-03T05:32:02;34.80;;;31.70;;
22881;SDS011;11608;50.894;5.296;2023-04-03T05:34:28;33.93;;;31.17;;
22881;SDS011;11608;50.894;5.296;2023-04-03T05:36:54;34.07;;;31.03;;
22881;SDS011;11608;50.894;5.296;2023-04-03T05:39:20;33.93;;;31.13;;
22881;SDS011;11608;50.894;5.296;2023-04-03T05:41:47;34.87;;;31.90;;
22881;SDS011;11608;50.894;5.296;2023-04-03T05:44:13;34.80;;;31.67;;
22881;SDS011;11608;50.894;5.296;2023-04-03T05:46:40;34.97;;;31.87;;
22881;SDS011;11608;50.894;5.296;2023-04-03T05:49:15;34.70;;;31.80;;
22881;SDS011;11608;50.894;5.296;2023-04-03T05:51:44;35.37;;;32.47;;
22881;SDS011;11608;50.894;5.296;2023-04-03T05:54:17;35.63;;;32.63;;
22881;SDS011;11608;50.894;5.296;2023-04-03T05:56:46;35.97;;;32.67;;
22881;SDS011;11608;50.894;5.296;2023-04-03T05:59:15;35.73;;;32.53;;
22881;SDS011;11608;50.894;5.296;2023-04-03T06:01:41;34.37;;;31.17;;
22881;SDS011;11608;50.894;5.296;2023-04-03T06:04:10;34.53;;;31.27;;
22881;SDS011;11608;50.894;5.296;2023-04-03T06:06:57;35.93;;;32.53;;
22881;SDS011;11608;50.894;5.296;2023-04-03T06:09:24;34.63;;;31.53;;
22881;SDS011;11608;50.894;5.296;2023-04-03T06:11:51;33.23;;;30.30;;
22881;SDS011;11608;50.894;5.296;2023-04-03T06:14:17;33.20;;;30.07;;
22881;SDS011;11608;50.894;5.296;2023-04-03T06:16:43;32.10;;;29.07;;
22881;SDS011;11608;50.894;5.296;2023-04-03T06:19:10;31.23;;;28.43;;
22881;SDS011;11608;50.894;5.296;2023-04-03T06:21:37;30.30;;;27.67;;
22881;SDS011;11608;50.894;5.296;2023-04-03T06:24:04;31.10;;;28.43;;
22881;SDS011;11608;50.894;5.296;2023-04-03T06:26:30;30.03;;;27.27;;
22881;SDS011;11608;50.894;5.296;2023-04-03T06:28:57;29.47;;;26.80;;
22881;SDS011;11608;50.894;5.296;2023-04-03T06:31:23;30.20;;;27.27;;
22881;SDS011;11608;50.894;5.296;2023-04-03T06:33:51;28.97;;;26.30;;
22881;SDS011;11608;50.894;5.296;2023-04-03T06:36:18;32.37;;;29.00;;
22881;SDS011;11608;50.894;5.296;2023-04-03T06:38:45;29.07;;;26.73;;
22881;SDS011;11608;50.894;5.296;2023-04-03T06:41:11;30.23;;;27.07;;
22881;SDS011;11608;50.894;5.296;2023-04-03T06:43:37;29.37;;;26.90;;
22881;SDS011;11608;50.894;5.296;2023-04-03T06:46:03;28.87;;;26.17;;
22881;SDS011;11608;50.894;5.296;2023-04-03T06:48:30;28.37;;;25.73;;
22881;SDS011;11608;50.894;5.296;2023-04-03T06:50:56;27.73;;;25.23;;
22881;SDS011;11608;50.894;5.296;2023-04-03T06:53:24;28.53;;;25.93;;
22881;SDS011;11608;50.894;5.296;2023-04-03T06:55:51;28.83;;;26.40;;
22881;SDS011;11608;50.894;5.296;2023-04-03T06:58:19;29.80;;;27.03;;
22881;SDS011;11608;50.894;5.296;2023-04-03T07:00:45;27.67;;;25.43;;
22881;SDS011;11608;50.894;5.296;2023-04-03T07:03:14;27.40;;;24.97;;
22881;SDS011;11608;50.894;5.296;2023-04-03T07:05:41;26.83;;;24.53;;
22881;SDS011;11608;50.894;5.296;2023-04-03T07:08:09;26.70;;;24.30;;
22881;SDS011;11608;50.894;5.296;2023-04-03T07:10:37;27.97;;;25.37;;
22881;SDS011;11608;50.894;5.296;2023-04-03T07:13:03;26.77;;;24.30;;
22881;SDS011;11608;50.894;5.296;2023-04-03T07:15:29;26.53;;;24.23;;
22881;SDS011;11608;50.894;5.296;2023-04-03T07:18:01;26.17;;;23.73;;
22881;SDS011;11608;50.894;5.296;2023-04-03T07:20:32;26.07;;;23.67;;
22881;SDS011;11608;50.894;5.296;2023-04-03T07:22:58;25.50;;;23.40;;
22881;SDS011;11608;50.894;5.296;2023-04-03T07:25:27;25.40;;;23.20;;
22881;SDS011;11608;50.894;5.296;2023-04-03T07:28:00;25.23;;;23.15;;
22881;SDS011;11608;50.894;5.296;2023-04-03T07:30:29;24.77;;;22.80;;
22881;SDS011;11608;50.894;5.296;2023-04-03T07:32:58;25.10;;;22.98;;
22881;SDS011;11608;50.894;5.296;2023-04-03T07:35:27;25.55;;;23.35;;
22881;SDS011;11608;50.894;5.296;2023-04-03T07:37:55;25.60;;;23.50;;
22881;SDS011;11608;50.894;5.296;2023-04-03T07:40:21;26.10;;;23.90;;
22881;SDS011;11608;50.894;5.296;2023-04-03T07:42:47;25.65;;;23.48;;
22881;SDS011;11608;50.894;5.296;2023-04-03T07:45:18;26.17;;;23.77;;
22881;SDS011;11608;50.894;5.296;2023-04-03T07:47:44;25.50;;;23.23;;
22881;SDS011;11608;50.894;5.296;2023-04-03T07:50:18;25.42;;;22.95;;
22881;SDS011;11608;50.894;5.296;2023-04-03T07:52:44;24.08;;;22.08;;
22881;SDS011;11608;50.894;5.296;2023-04-03T07:55:13;23.60;;;21.70;;
22881;SDS011;11608;50.894;5.296;2023-04-03T07:57:47;24.85;;;22.45;;
22881;SDS011;11608;50.894;5.296;2023-04-03T08:00:13;24.83;;;22.50;;
22881;SDS011;11608;50.894;5.296;2023-04-03T08:02:42;24.30;;;22.20;;
22881;SDS011;11608;50.894;5.296;2023-04-03T08:05:11;23.58;;;21.58;;
22881;SDS011;11608;50.894;5.296;2023-04-03T08:07:38;23.55;;;21.48;;
22881;SDS011;11608;50.894;5.296;2023-04-03T08:10:04;23.80;;;21.90;;
22881;SDS011;11608;50.894;5.296;2023-04-03T08:12:33;23.77;;;21.73;;
22881;SDS011;11608;50.894;5.296;2023-04-03T08:14:59;25.25;;;23.15;;
22881;SDS011;11608;50.894;5.296;2023-04-03T08:17:26;23.30;;;21.40;;
22881;SDS011;11608;50.894;5.296;2023-04-03T08:19:55;23.33;;;21.42;;
22881;SDS011;11608;50.894;5.296;2023-04-03T08:22:23;22.30;;;20.50;;
22881;SDS011;11608;50.894;5.296;2023-04-03T08:24:49;22.55;;;20.85;;
22881;SDS011;11608;50.894;5.296;2023-04-03T08:27:15;23.15;;;21.45;;
22881;SDS011;11608;50.894;5.296;2023-04-03T08:29:44;22.52;;;20.73;;
22881;SDS011;11608;50.894;5.296;2023-04-03T08:32:10;22.85;;;20.95;;
22881;SDS011;11608;50.894;5.296;2023-04-03T08:34:39;22.63;;;20.70;;
22881;SDS011;11608;50.894;5.296;2023-04-03T08:37:09;22.80;;;20.98;;
22881;SDS011;11608;50.894;5.296;2023-04-03T08:39:38;22.77;;;20.60;;
22881;SDS011;11608;50.894;5.296;2023-04-03T08:42:26;22.20;;;20.40;;
22881;SDS011;11608;50.894;5.296;2023-04-03T08:45:01;22.42;;;20.52;;
22881;SDS011;11608;50.894;5.296;2023-04-03T08:50:02;21.90;;;20.20;;
22881;SDS011;11608;50.894;5.296;2023-04-03T08:52:38;22.45;;;20.55;;
22881;SDS011;11608;50.894;5.296;2023-04-03T08:57:48;22.15;;;20.38;;
22881;SDS011;11608;50.894;5.296;2023-04-03T09:00:19;21.17;;;19.48;;
22881;SDS011;11608;50.894;5.296;2023-04-03T09:02:51;22.23;;;20.23;;
22881;SDS011;11608;50.894;5.296;2023-04-03T09:05:41;22.15;;;20.02;;
22881;SDS011;11608;50.894;5.296;2023-04-03T09:08:14;22.20;;;20.42;;
22881;SDS011;11608;50.894;5.296;2023-04-03T09:10:44;21.20;;;19.40;;
22881;SDS011;11608;50.894;5.296;2023-04-03T09:13:30;21.38;;;19.73;;
22881;SDS011;11608;50.894;5.296;2023-04-03T09:16:01;21.08;;;19.30;;
22881;SDS011;11608;50.894;5.296;2023-04-03T09:18:36;22.00;;;19.88;;
22881;SDS011;11608;50.894;5.296;2023-04-03T09:21:13;21.50;;;19.75;;
22881;SDS011;11608;50.894;5.296;2023-04-03T09:23:59;21.38;;;19.58;;
22881;SDS011;11608;50.894;5.296;2023-04-03T09:26:30;21.00;;;19.20;;
22881;SDS011;11608;50.894;5.296;2023-04-03T09:28:58;21.92;;;20.02;;
22881;SDS011;11608;50.894;5.296;2023-04-03T09:31:47;21.75;;;19.80;;
22881;SDS011;11608;50.894;5.296;2023-04-03T09:34:32;20.67;;;19.13;;
22881;SDS011;11608;50.894;5.296;2023-04-03T09:37:04;21.23;;;19.33;;
22881;SDS011;11608;50.894;5.296;2023-04-03T09:39:52;20.98;;;19.33;;
22881;SDS011;11608;50.894;5.296;2023-04-03T09:42:24;21.27;;;19.38;;
22881;SDS011;11608;50.894;5.296;2023-04-03T09:44:58;20.17;;;18.67;;
22881;SDS011;11608;50.894;5.296;2023-04-03T09:47:28;20.05;;;18.55;;
22881;SDS011;11608;50.894;5.296;2023-04-03T09:52:43;21.52;;;19.75;;
22881;SDS011;11608;50.894;5.296;2023-04-03T09:57:41;21.02;;;19.38;;
22881;SDS011;11608;50.894;5.296;2023-04-03T10:00:19;21.27;;;19.38;;
22881;SDS011;11608;50.894;5.296;2023-04-03T10:02:46;20.88;;;19.17;;
22881;SDS011;11608;50.894;5.296;2023-04-03T10:05:26;20.60;;;18.75;;
22881;SDS011;11608;50.894;5.296;2023-04-03T10:07:52;21.73;;;19.67;;
22881;SDS011;11608;50.894;5.296;2023-04-03T10:10:32;21.10;;;19.48;;
22881;SDS011;11608;50.894;5.296;2023-04-03T10:13:05;21.20;;;19.58;;
22881;SDS011;11608;50.894;5.296;2023-04-03T10:15:45;21.50;;;19.75;;
22881;SDS011;11608;50.894;5.296;2023-04-03T10:18:20;21.75;;;19.85;;
22881;SDS011;11608;50.894;5.296;2023-04-03T10:20:48;21.73;;;19.63;;
22881;SDS011;11608;50.894;5.296;2023-04-03T10:36:37;20.83;;;19.20;;
22881;SDS011;11608;50.894;5.296;2023-04-03T10:46:29;21.10;;;19.42;;
22881;SDS011;11608;50.894;5.296;2023-04-03T10:49:01;19.42;;;18.02;;
22881;SDS011;11608;50.894;5.296;2023-04-03T10:54:36;20.20;;;18.73;;
22881;SDS011;11608;50.894;5.296;2023-04-03T10:57:05;20.17;;;18.58;;
22881;SDS011;11608;50.894;5.296;2023-04-03T10:59:50;19.67;;;18.27;;
22881;SDS011;11608;50.894;5.296;2023-04-03T11:02:27;20.13;;;18.73;;
22881;SDS011;11608;50.894;5.296;2023-04-03T11:04:57;19.50;;;18.02;;
22881;SDS011;11608;50.894;5.296;2023-04-03T11:07:28;20.25;;;18.67;;
22881;SDS011;11608;50.894;5.296;2023-04-03T11:10:05;19.42;;;18.13;;
22881;SDS011;11608;50.894;5.296;2023-04-03T11:15:11;20.17;;;18.63;;
22881;SDS011;11608;50.894;5.296;2023-04-03T11:18:20;20.77;;;19.13;;
22881;SDS011;11608;50.894;5.296;2023-04-03T11:20:28;20.05;;;18.50;;
22881;SDS011;11608;50.894;5.296;2023-04-03T11:25:53;20.00;;;18.50;;
22881;SDS011;11608;50.894;5.296;2023-04-03T11:28:20;20.63;;;18.88;;
22881;SDS011;11608;50.894;5.296;2023-04-03T11:35:57;19.33;;;17.90;;
22881;SDS011;11608;50.894;5.296;2023-04-03T11:38:31;19.52;;;18.02;;
22881;SDS011;11608;50.894;5.296;2023-04-03T11:41:01;19.92;;;18.38;;
22881;SDS011;11608;50.894;5.296;2023-04-03T11:43:28;19.85;;;18.45;;
22881;SDS011;11608;50.894;5.296;2023-04-03T11:45:58;19.65;;;18.25;;
22881;SDS011;11608;50.894;5.296;2023-04-03T11:53:42;19.65;;;18.05;;
22881;SDS011;11608;50.894;5.296;2023-04-03T12:04:09;21.05;;;19.55;;
22881;SDS011;11608;50.894;5.296;2023-04-03T12:09:28;20.35;;;18.88;;
22881;SDS011;11608;50.894;5.296;2023-04-03T12:11:55;20.55;;;18.95;;
22881;SDS011;11608;50.894;5.296;2023-04-03T12:14:24;20.23;;;18.63;;
22881;SDS011;11608;50.894;5.296;2023-04-03T12:16:53;20.17;;;18.58;;
22881;SDS011;11608;50.894;5.296;2023-04-03T12:19:38;20.40;;;18.77;;
22881;SDS011;11608;50.894;5.296;2023-04-03T12:22:12;20.25;;;18.58;;
22881;SDS011;11608;50.894;5.296;2023-04-03T12:24:40;19.67;;;18.27;;
22881;SDS011;11608;50.894;5.296;2023-04-03T12:27:26;19.67;;;18.13;;
22881;SDS011;11608;50.894;5.296;2023-04-03T12:40:34;20.33;;;18.63;;
22881;SDS011;11608;50.894;5.296;2023-04-03T12:43:09;20.45;;;18.95;;
22881;SDS011;11608;50.894;5.296;2023-04-03T12:48:24;19.60;;;18.10;;
22881;SDS011;11608;50.894;5.296;2023-04-03T12:50:53;20.52;;;18.90;;
22881;SDS011;11608;50.894;5.296;2023-04-03T12:53:34;20.27;;;18.67;;
22881;SDS011;11608;50.894;5.296;2023-04-03T12:59:20;20.70;;;19.20;;
22881;SDS011;11608;50.894;5.296;2023-04-03T13:01:55;20.90;;;19.20;;
22881;SDS011;11608;50.894;5.296;2023-04-03T13:04:21;20.40;;;18.70;;
22881;SDS011;11608;50.894;5.296;2023-04-03T13:06:47;20.88;;;19.10;;
22881;SDS011;11608;50.894;5.296;2023-04-03T13:12:10;21.27;;;19.63;;
22881;SDS011;11608;50.894;5.296;2023-04-03T13:14:40;21.50;;;19.67;;
22881;SDS011;11608;50.894;5.296;2023-04-03T13:17:13;21.55;;;19.85;;
22881;SDS011;11608;50.894;5.296;2023-04-03T13:19:40;20.85;;;19.15;;
22881;SDS011;11608;50.894;5.296;2023-04-03T13:22:08;21.02;;;19.42;;
22881;SDS011;11608;50.894;5.296;2023-04-03T13:24:37;21.63;;;19.88;;
22881;SDS011;11608;50.894;5.296;2023-04-03T13:27:06;21.30;;;19.60;;
22881;SDS011;11608;50.894;5.296;2023-04-03T13:29:36;21.08;;;19.38;;
22881;SDS011;11608;50.894;5.296;2023-04-03T13:32:03;21.13;;;19.63;;
22881;SDS011;11608;50.894;5.296;2023-04-03T13:34:41;21.35;;;19.73;;
22881;SDS011;11608;50.894;5.296;2023-04-03T13:37:28;21.52;;;19.90;;
22881;SDS011;11608;50.894;5.296;2023-04-03T13:39:59;21.73;;;19.92;;
22881;SDS011;11608;50.894;5.296;2023-04-03T13:42:27;21.05;;;19.13;;
22881;SDS011;11608;50.894;5.296;2023-04-03T13:47:40;21.20;;;19.50;;
22881;SDS011;11608;50.894;5.296;2023-04-03T13:50:16;21.58;;;19.70;;
22881;SDS011;11608;50.894;5.296;2023-04-03T13:52:43;21.33;;;19.67;;
22881;SDS011;11608;50.894;5.296;2023-04-03T13:57:51;20.35;;;18.95;;
22881;SDS011;11608;50.894;5.296;2023-04-03T14:00:19;21.33;;;19.58;;
22881;SDS011;11608;50.894;5.296;2023-04-03T14:02:46;21.08;;;19.17;;
22881;SDS011;11608;50.894;5.296;2023-04-03T14:05:12;20.10;;;18.70;;
22881;SDS011;11608;50.894;5.296;2023-04-03T14:07:41;20.83;;;19.00;;
22881;SDS011;11608;50.894;5.296;2023-04-03T14:10:09;20.65;;;19.02;;
22881;SDS011;11608;50.894;5.296;2023-04-03T14:12:36;20.67;;;18.83;;
22881;SDS011;11608;50.894;5.296;2023-04-03T14:15:05;20.55;;;18.95;;
22881;SDS011;11608;50.894;5.296;2023-04-03T14:17:33;20.50;;;19.10;;
22881;SDS011;11608;50.894;5.296;2023-04-03T14:20:04;20.23;;;18.73;;
22881;SDS011;11608;50.894;5.296;2023-04-03T14:22:33;20.80;;;19.20;;
22881;SDS011;11608;50.894;5.296;2023-04-03T14:24:59;20.42;;;18.83;;
22881;SDS011;11608;50.894;5.296;2023-04-03T14:27:29;20.83;;;19.20;;
22881;SDS011;11608;50.894;5.296;2023-04-03T14:29:59;20.70;;;19.13;;
22881;SDS011;11608;50.894;5.296;2023-04-03T14:32:28;20.40;;;18.85;;
22881;SDS011;11608;50.894;5.296;2023-04-03T14:34:55;20.20;;;18.67;;
22881;SDS011;11608;50.894;5.296;2023-04-03T14:37:24;20.38;;;18.80;;
22881;SDS011;11608;50.894;5.296;2023-04-03T14:39:52;21.40;;;19.70;;
22881;SDS011;11608;50.894;5.296;2023-04-03T14:42:23;20.77;;;19.13;;
22881;SDS011;11608;50.894;5.296;2023-04-03T14:44:50;20.85;;;19.17;;
22881;SDS011;11608;50.894;5.296;2023-04-03T14:47:25;21.00;;;19.20;;
22881;SDS011;11608;50.894;5.296;2023-04-03T14:49:53;21.83;;;19.98;;
22881;SDS011;11608;50.894;5.296;2023-04-03T14:52:24;20.90;;;19.30;;
22881;SDS011;11608;50.894;5.296;2023-04-03T14:54:54;20.92;;;19.45;;
22881;SDS011;11608;50.894;5.296;2023-04-03T14:57:21;20.65;;;19.17;;
22881;SDS011;11608;50.894;5.296;2023-04-03T14:59:52;20.13;;;18.83;;
22881;SDS011;11608;50.894;5.296;2023-04-03T15:04:58;20.60;;;19.02;;
22881;SDS011;11608;50.894;5.296;2023-04-03T15:07:26;20.65;;;18.95;;
22881;SDS011;11608;50.894;5.296;2023-04-03T15:09:55;19.80;;;18.40;;
22881;SDS011;11608;50.894;5.296;2023-04-03T15:12:24;19.77;;;18.17;;
22881;SDS011;11608;50.894;5.296;2023-04-03T15:14:50;19.42;;;17.92;;
22881;SDS011;11608;50.894;5.296;2023-04-03T15:17:17;19.65;;;18.15;;
22881;SDS011;11608;50.894;5.296;2023-04-03T15:19:44;19.60;;;18.10;;
22881;SDS011;11608;50.894;5.296;2023-04-03T15:22:20;19.10;;;17.70;;
22881;SDS011;11608;50.894;5.296;2023-04-03T15:24:46;18.80;;;17.48;;
22881;SDS011;11608;50.894;5.296;2023-04-03T15:27:14;19.17;;;17.77;;
22881;SDS011;11608;50.894;5.296;2023-04-03T15:29:41;19.75;;;18.05;;
22881;SDS011;11608;50.894;5.296;2023-04-03T15:32:10;19.13;;;17.73;;
22881;SDS011;11608;50.894;5.296;2023-04-03T15:34:36;19.02;;;17.65;;
22881;SDS011;11608;50.894;5.296;2023-04-03T15:37:02;19.08;;;17.77;;
22881;SDS011;11608;50.894;5.296;2023-04-03T15:39:31;19.33;;;17.83;;
22881;SDS011;11608;50.894;5.296;2023-04-03T15:41:59;20.10;;;18.48;;
22881;SDS011;11608;50.894;5.296;2023-04-03T15:44:33;19.08;;;17.58;;
22881;SDS011;11608;50.894;5.296;2023-04-03T15:47:00;19.88;;;18.40;;
22881;SDS011;11608;50.894;5.296;2023-04-03T15:49:29;19.67;;;18.20;;
22881;SDS011;11608;50.894;5.296;2023-04-03T15:52:05;19.60;;;18.10;;
22881;SDS011;11608;50.894;5.296;2023-04-03T15:54:33;19.90;;;18.17;;
22881;SDS011;11608;50.894;5.296;2023-04-03T15:57:00;19.70;;;18.05;;
22881;SDS011;11608;50.894;5.296;2023-04-03T15:59:26;19.85;;;18.38;;
22881;SDS011;11608;50.894;5.296;2023-04-03T16:01:54;20.05;;;18.65;;
22881;SDS011;11608;50.894;5.296;2023-04-03T16:04:27;19.40;;;18.05;;